sensor_id;sensor_type;location;lat;lon;timestamp;pressure;altitude;pressure_sealevel;temperature;humidity
33913;BME280;20200;52.084;5.224;2022-11-23T00:00:29;99320.0;;;8.94;100.0
33913;BME280;20200;52.084;5.224;2022-11-23T00:03:42;99319.0;;;9.05;100.0
33913;BME280;20200;52.084;5.224;2022-11-23T00:05:19;99320.0;;;9.05;100.0
33913;BME280;20200;52.084;5.224;2022-11-23T00:06:55;99317.0;;;9.08;100.0
33913;BME280;20200;52.084;5.224;2022-11-23T00:10:08;99323.0;;;9.09;100.0
33913;BME280;20200;52.084;5.224;2022-11-23T00:11:44;99330.0;;;9.09;100.0
33913;BME280;20200;52.084;5.224;2022-11-23T00:13:21;99334.0;;;9.03;100.0
33913;BME280;20200;52.084;5.224;2022-11-23T00:14:57;99343.0;;;9.07;100.0
33913;BME280;20200;52.084;5.224;2022-11-23T00:18:09;99340.0;;;9.11;100.0
33913;BME280;20200;52.084;5.224;2022-11-23T00:19:45;99343.0;;;9.1;100.0
33913;BME280;20200;52.084;5.224;2022-11-23T00:21:23;99335.0;;;9.14;100.0
33913;BME280;20200;52.084;5.224;2022-11-23T00:24:37;99337.0;;;9.17;100.0
33913;BME280;20200;52.084;5.224;2022-11-23T00:26:14;99345.0;;;9.1;100.0
33913;BME280;20200;52.084;5.224;2022-11-23T00:27:50;99340.0;;;9.11;100.0
33913;BME280;20200;52.084;5.224;2022-11-23T00:31:03;99342.0;;;9.14;100.0
33913;BME280;20200;52.084;5.224;2022-11-23T00:32:40;99349.0;;;9.07;100.0
33913;BME280;20200;52.084;5.224;2022-11-23T00:34:16;99348.0;;;9.08;100.0
33913;BME280;20200;52.084;5.224;2022-11-23T00:36:00;99351.0;;;9.15;100.0
33913;BME280;20200;52.084;5.224;2022-11-23T00:39:14;99358.0;;;9.06;100.0
33913;BME280;20200;52.084;5.224;2022-11-23T00:40:56;99362.0;;;9.06;100.0
33913;BME280;20200;52.084;5.224;2022-11-23T00:42:32;99361.0;;;9.11;100.0
33913;BME280;20200;52.084;5.224;2022-11-23T00:45:45;99362.0;;;9.17;100.0
33913;BME280;20200;52.084;5.224;2022-11-23T00:47:21;99366.0;;;9.13;100.0
33913;BME280;20200;52.084;5.224;2022-11-23T00:48:57;99368.0;;;9.02;100.0
33913;BME280;20200;52.084;5.224;2022-11-23T00:50:33;99362.0;;;8.96;100.0
33913;BME280;20200;52.084;5.224;2022-11-23T00:53:46;99365.0;;;9.07;100.0
33913;BME280;20200;52.084;5.224;2022-11-23T00:55:24;99366.0;;;8.99;100.0
33913;BME280;20200;52.084;5.224;2022-11-23T00:57:00;99371.0;;;8.99;100.0
33913;BME280;20200;52.084;5.224;2022-11-23T01:00:15;99380.0;;;8.98;100.0
33913;BME280;20200;52.084;5.224;2022-11-23T01:01:51;99380.0;;;8.99;100.0
33913;BME280;20200;52.084;5.224;2022-11-23T01:03:28;99380.0;;;8.99;100.0
33913;BME280;20200;52.084;5.224;2022-11-23T01:06:42;99380.0;;;9.06;100.0
33913;BME280;20200;52.084;5.224;2022-11-23T01:08:18;99383.0;;;8.99;100.0
33913;BME280;20200;52.084;5.224;2022-11-23T01:09:55;99384.0;;;9.11;100.0
33913;BME280;20200;52.084;5.224;2022-11-23T01:11:31;99384.0;;;8.96;100.0
33913;BME280;20200;52.084;5.224;2022-11-23T01:14:44;99385.0;;;8.94;100.0
33913;BME280;20200;52.084;5.224;2022-11-23T01:16:22;99389.0;;;9.01;100.0
33913;BME280;20200;52.084;5.224;2022-11-23T01:17:59;99386.0;;;9.08;100.0
33913;BME280;20200;52.084;5.224;2022-11-23T01:21:12;99387.0;;;9.09;100.0
33913;BME280;20200;52.084;5.224;2022-11-23T01:22:50;99388.0;;;9.11;100.0
33913;BME280;20200;52.084;5.224;2022-11-23T01:24:26;99389.0;;;9.14;100.0
33913;BME280;20200;52.084;5.224;2022-11-23T01:26:04;99390.0;;;9.13;100.0
33913;BME280;20200;52.084;5.224;2022-11-23T01:29:17;99392.0;;;9.07;100.0
33913;BME280;20200;52.084;5.224;2022-11-23T01:30:53;99391.0;;;9.11;100.0
33913;BME280;20200;52.084;5.224;2022-11-23T01:32:29;99391.0;;;9.21;100.0
33913;BME280;20200;52.084;5.224;2022-11-23T01:35:43;99391.0;;;9.25;99.72
33913;BME280;20200;52.084;5.224;2022-11-23T01:37:19;99394.0;;;9.11;100.0
33913;BME280;20200;52.084;5.224;2022-11-23T01:38:56;99392.0;;;9.06;100.0
33913;BME280;20200;52.084;5.224;2022-11-23T01:42:16;99389.0;;;9.22;100.0
33913;BME280;20200;52.084;5.224;2022-11-23T01:43:52;99402.0;;;9.13;100.0
33913;BME280;20200;52.084;5.224;2022-11-23T01:45:33;99399.0;;;9.13;100.0
33913;BME280;20200;52.084;5.224;2022-11-23T01:47:10;99400.0;;;8.99;100.0
33913;BME280;20200;52.084;5.224;2022-11-23T01:50:30;99400.0;;;8.99;100.0
33913;BME280;20200;52.084;5.224;2022-11-23T01:52:09;99402.0;;;9.0;100.0
33913;BME280;20200;52.084;5.224;2022-11-23T01:53:52;99405.0;;;9.05;100.0
33913;BME280;20200;52.084;5.224;2022-11-23T01:55:29;99402.0;;;9.02;100.0
33913;BME280;20200;52.084;5.224;2022-11-23T01:58:56;99403.0;;;9.06;100.0
33913;BME280;20200;52.084;5.224;2022-11-23T02:00:35;99412.0;;;8.96;100.0
33913;BME280;20200;52.084;5.224;2022-11-23T02:02:12;99410.0;;;8.91;100.0
33913;BME280;20200;52.084;5.224;2022-11-23T02:03:50;99410.0;;;8.83;100.0
33913;BME280;20200;52.084;5.224;2022-11-23T02:07:13;99418.0;;;8.86;100.0
33913;BME280;20200;52.084;5.224;2022-11-23T02:08:52;99416.0;;;8.82;100.0
33913;BME280;20200;52.084;5.224;2022-11-23T02:10:30;99416.0;;;8.82;100.0
33913;BME280;20200;52.084;5.224;2022-11-23T02:12:09;99414.0;;;8.84;100.0
33913;BME280;20200;52.084;5.224;2022-11-23T02:15:24;99418.0;;;8.82;100.0
33913;BME280;20200;52.084;5.224;2022-11-23T02:17:00;99420.0;;;8.82;100.0
33913;BME280;20200;52.084;5.224;2022-11-23T02:18:38;99421.0;;;8.76;100.0
33913;BME280;20200;52.084;5.224;2022-11-23T02:21:55;99430.0;;;8.75;100.0
33913;BME280;20200;52.084;5.224;2022-11-23T02:23:35;99425.0;;;8.68;100.0
33913;BME280;20200;52.084;5.224;2022-11-23T02:25:33;99425.0;;;8.74;100.0
33913;BME280;20200;52.084;5.224;2022-11-23T02:27:12;99425.0;;;8.64;100.0
33913;BME280;20200;52.084;5.224;2022-11-23T02:28:53;99427.0;;;8.67;100.0
33913;BME280;20200;52.084;5.224;2022-11-23T02:32:17;99430.0;;;8.66;100.0
33913;BME280;20200;52.084;5.224;2022-11-23T02:33:55;99432.0;;;8.64;100.0
33913;BME280;20200;52.084;5.224;2022-11-23T02:35:33;99427.0;;;8.74;100.0
33913;BME280;20200;52.084;5.224;2022-11-23T02:38:46;99430.0;;;8.64;100.0
33913;BME280;20200;52.084;5.224;2022-11-23T02:40:26;99433.0;;;8.58;100.0
33913;BME280;20200;52.084;5.224;2022-11-23T02:42:04;99428.0;;;8.66;100.0
33913;BME280;20200;52.084;5.224;2022-11-23T02:43:41;99430.0;;;8.56;100.0
33913;BME280;20200;52.084;5.224;2022-11-23T02:47:03;99431.0;;;8.64;100.0
33913;BME280;20200;52.084;5.224;2022-11-23T02:48:41;99431.0;;;8.67;100.0
33913;BME280;20200;52.084;5.224;2022-11-23T02:50:17;99438.0;;;8.55;100.0
33913;BME280;20200;52.084;5.224;2022-11-23T02:51:53;99438.0;;;8.6;100.0
33913;BME280;20200;52.084;5.224;2022-11-23T02:55:06;99443.0;;;8.57;100.0
33913;BME280;20200;52.084;5.224;2022-11-23T02:56:43;99436.0;;;8.69;100.0
33913;BME280;20200;52.084;5.224;2022-11-23T02:58:19;99434.0;;;8.65;100.0
33913;BME280;20200;52.084;5.224;2022-11-23T03:01:31;99440.0;;;8.66;100.0
33913;BME280;20200;52.084;5.224;2022-11-23T03:03:09;99431.0;;;8.57;100.0
33913;BME280;20200;52.084;5.224;2022-11-23T03:04:45;99433.0;;;8.58;100.0
33913;BME280;20200;52.084;5.224;2022-11-23T03:07:57;99436.0;;;8.61;100.0
33913;BME280;20200;52.084;5.224;2022-11-23T03:09:33;99442.0;;;8.51;100.0
33913;BME280;20200;52.084;5.224;2022-11-23T03:11:10;99443.0;;;8.51;100.0
33913;BME280;20200;52.084;5.224;2022-11-23T03:12:46;99444.0;;;8.53;100.0
33913;BME280;20200;52.084;5.224;2022-11-23T03:15:58;99445.0;;;8.56;100.0
33913;BME280;20200;52.084;5.224;2022-11-23T03:17:34;99441.0;;;8.56;100.0
33913;BME280;20200;52.084;5.224;2022-11-23T03:22:23;99443.0;;;8.56;99.87
33913;BME280;20200;52.084;5.224;2022-11-23T03:23:59;99446.0;;;8.56;99.73
33913;BME280;20200;52.084;5.224;2022-11-23T03:25:35;99443.0;;;8.59;99.68
33913;BME280;20200;52.084;5.224;2022-11-23T03:28:48;99450.0;;;8.65;99.53
33913;BME280;20200;52.084;5.224;2022-11-23T03:30:24;99447.0;;;8.65;99.07
33913;BME280;20200;52.084;5.224;2022-11-23T03:32:00;99445.0;;;8.56;99.42
33913;BME280;20200;52.084;5.224;2022-11-23T03:35:14;99442.0;;;8.64;99.19
33913;BME280;20200;52.084;5.224;2022-11-23T03:36:50;99440.0;;;8.66;98.81
33913;BME280;20200;52.084;5.224;2022-11-23T03:38:26;99444.0;;;8.69;98.84
33913;BME280;20200;52.084;5.224;2022-11-23T03:40:03;99439.0;;;8.82;98.28
33913;BME280;20200;52.084;5.224;2022-11-23T03:43:16;99444.0;;;8.81;97.95
33913;BME280;20200;52.084;5.224;2022-11-23T03:44:52;99441.0;;;8.78;98.24
33913;BME280;20200;52.084;5.224;2022-11-23T03:46:28;99441.0;;;8.74;98.02
33913;BME280;20200;52.084;5.224;2022-11-23T03:49:42;99448.0;;;8.68;98.25
33913;BME280;20200;52.084;5.224;2022-11-23T03:51:18;99448.0;;;8.69;98.34
33913;BME280;20200;52.084;5.224;2022-11-23T03:52:55;99446.0;;;8.78;98.28
33913;BME280;20200;52.084;5.224;2022-11-23T03:56:08;99445.0;;;8.76;98.16
33913;BME280;20200;52.084;5.224;2022-11-23T03:57:46;99446.0;;;8.76;98.15
33913;BME280;20200;52.084;5.224;2022-11-23T03:59:22;99438.0;;;8.85;98.09
33913;BME280;20200;52.084;5.224;2022-11-23T04:00:59;99438.0;;;8.78;98.06
33913;BME280;20200;52.084;5.224;2022-11-23T04:04:12;99435.0;;;8.81;97.95
33913;BME280;20200;52.084;5.224;2022-11-23T04:05:48;99433.0;;;8.83;97.83
33913;BME280;20200;52.084;5.224;2022-11-23T04:07:24;99431.0;;;8.73;98.3
33913;BME280;20200;52.084;5.224;2022-11-23T04:10:37;99430.0;;;8.73;98.46
33913;BME280;20200;52.084;5.224;2022-11-23T04:12:13;99430.0;;;8.76;98.39
33913;BME280;20200;52.084;5.224;2022-11-23T04:13:49;99432.0;;;8.73;98.59
33913;BME280;20200;52.084;5.224;2022-11-23T04:17:02;99431.0;;;8.65;98.94
33913;BME280;20200;52.084;5.224;2022-11-23T04:18:39;99433.0;;;8.74;98.65
33913;BME280;20200;52.084;5.224;2022-11-23T04:20:16;99439.0;;;8.74;98.6
33913;BME280;20200;52.084;5.224;2022-11-23T04:21:52;99440.0;;;8.75;98.73
33913;BME280;20200;52.084;5.224;2022-11-23T04:25:05;99441.0;;;8.72;98.8
33913;BME280;20200;52.084;5.224;2022-11-23T04:26:42;99444.0;;;8.73;98.66
33913;BME280;20200;52.084;5.224;2022-11-23T04:28:18;99442.0;;;8.78;98.38
33913;BME280;20200;52.084;5.224;2022-11-23T04:31:30;99441.0;;;8.73;98.43
33913;BME280;20200;52.084;5.224;2022-11-23T04:33:07;99443.0;;;8.72;98.55
33913;BME280;20200;52.084;5.224;2022-11-23T04:34:44;99446.0;;;8.77;98.23
33913;BME280;20200;52.084;5.224;2022-11-23T04:37:56;99442.0;;;8.73;98.08
33913;BME280;20200;52.084;5.224;2022-11-23T04:39:32;99445.0;;;8.72;98.03
33913;BME280;20200;52.084;5.224;2022-11-23T04:41:09;99446.0;;;8.64;98.11
33913;BME280;20200;52.084;5.224;2022-11-23T04:42:45;99452.0;;;8.61;98.39
33913;BME280;20200;52.084;5.224;2022-11-23T04:45:58;99443.0;;;8.68;98.25
33913;BME280;20200;52.084;5.224;2022-11-23T04:47:36;99443.0;;;8.67;98.01
33913;BME280;20200;52.084;5.224;2022-11-23T04:49:12;99444.0;;;8.66;97.72
33913;BME280;20200;52.084;5.224;2022-11-23T04:52:25;99447.0;;;8.65;97.94
33913;BME280;20200;52.084;5.224;2022-11-23T04:54:01;99447.0;;;8.73;97.62
33913;BME280;20200;52.084;5.224;2022-11-23T04:55:37;99444.0;;;8.64;97.55
33913;BME280;20200;52.084;5.224;2022-11-23T04:58:50;99447.0;;;8.57;98.04
33913;BME280;20200;52.084;5.224;2022-11-23T05:00:26;99442.0;;;8.64;97.9
33913;BME280;20200;52.084;5.224;2022-11-23T05:02:03;99446.0;;;8.56;98.14
33913;BME280;20200;52.084;5.224;2022-11-23T05:03:39;99444.0;;;8.57;98.14
33913;BME280;20200;52.084;5.224;2022-11-23T05:06:52;99441.0;;;8.56;98.03
33913;BME280;20200;52.084;5.224;2022-11-23T05:08:29;99442.0;;;8.6;98.15
33913;BME280;20200;52.084;5.224;2022-11-23T05:10:07;99441.0;;;8.5;98.63
33913;BME280;20200;52.084;5.224;2022-11-23T05:13:19;99444.0;;;8.56;98.5
33913;BME280;20200;52.084;5.224;2022-11-23T05:14:55;99436.0;;;8.57;98.15
33913;BME280;20200;52.084;5.224;2022-11-23T05:16:32;99445.0;;;8.51;98.46
33913;BME280;20200;52.084;5.224;2022-11-23T05:19:47;99431.0;;;8.6;98.4
33913;BME280;20200;52.084;5.224;2022-11-23T05:21:23;99438.0;;;8.64;98.1
33913;BME280;20200;52.084;5.224;2022-11-23T05:23:00;99437.0;;;8.66;97.86
33913;BME280;20200;52.084;5.224;2022-11-23T05:26:13;99445.0;;;8.69;97.66
33913;BME280;20200;52.084;5.224;2022-11-23T05:27:49;99445.0;;;8.68;97.43
33913;BME280;20200;52.084;5.224;2022-11-23T05:29:26;99443.0;;;8.74;97.39
33913;BME280;20200;52.084;5.224;2022-11-23T05:31:03;99442.0;;;8.74;97.17
33913;BME280;20200;52.084;5.224;2022-11-23T05:35:53;99446.0;;;8.78;96.79
33913;BME280;20200;52.084;5.224;2022-11-23T05:37:29;99442.0;;;8.78;96.88
33913;BME280;20200;52.084;5.224;2022-11-23T05:40:43;99455.0;;;8.77;96.7
33913;BME280;20200;52.084;5.224;2022-11-23T05:42:20;99450.0;;;8.71;96.83
33913;BME280;20200;52.084;5.224;2022-11-23T05:43:56;99455.0;;;8.81;96.46
33913;BME280;20200;52.084;5.224;2022-11-23T05:45:32;99456.0;;;8.75;96.45
33913;BME280;20200;52.084;5.224;2022-11-23T05:48:44;99464.0;;;8.77;96.32
33913;BME280;20200;52.084;5.224;2022-11-23T05:50:22;99460.0;;;8.88;95.73
33913;BME280;20200;52.084;5.224;2022-11-23T05:51:59;99462.0;;;8.86;95.59
33913;BME280;20200;52.084;5.224;2022-11-23T05:55:12;99463.0;;;8.85;95.28
33913;BME280;20200;52.084;5.224;2022-11-23T05:56:48;99465.0;;;8.88;95.13
33913;BME280;20200;52.084;5.224;2022-11-23T05:58:24;99462.0;;;8.84;95.04
33913;BME280;20200;52.084;5.224;2022-11-23T06:01:39;99465.0;;;8.91;94.97
33913;BME280;20200;52.084;5.224;2022-11-23T06:03:15;99456.0;;;8.9;94.9
33913;BME280;20200;52.084;5.224;2022-11-23T06:04:51;99463.0;;;8.97;94.5
33913;BME280;20200;52.084;5.224;2022-11-23T06:06:27;99460.0;;;8.91;94.5
33913;BME280;20200;52.084;5.224;2022-11-23T06:09:40;99460.0;;;8.91;94.42
33913;BME280;20200;52.084;5.224;2022-11-23T06:11:16;99458.0;;;9.01;93.91
33913;BME280;20200;52.084;5.224;2022-11-23T06:12:52;99459.0;;;8.93;93.9
33913;BME280;20200;52.084;5.224;2022-11-23T06:16:05;99456.0;;;8.9;93.87
33913;BME280;20200;52.084;5.224;2022-11-23T06:17:41;99463.0;;;8.83;93.66
33913;BME280;20200;52.084;5.224;2022-11-23T06:19:17;99460.0;;;8.81;94.1
33913;BME280;20200;52.084;5.224;2022-11-23T06:22:29;99453.0;;;8.82;93.92
33913;BME280;20200;52.084;5.224;2022-11-23T06:24:06;99456.0;;;8.83;94.01
33913;BME280;20200;52.084;5.224;2022-11-23T06:25:42;99458.0;;;8.81;93.58
33913;BME280;20200;52.084;5.224;2022-11-23T06:27:18;99453.0;;;8.77;93.87
33913;BME280;20200;52.084;5.224;2022-11-23T06:30:30;99451.0;;;8.81;93.74
33913;BME280;20200;52.084;5.224;2022-11-23T06:32:07;99455.0;;;8.8;93.53
33913;BME280;20200;52.084;5.224;2022-11-23T06:33:44;99460.0;;;8.74;93.67
33913;BME280;20200;52.084;5.224;2022-11-23T06:36:57;99456.0;;;8.66;94.05
33913;BME280;20200;52.084;5.224;2022-11-23T06:38:33;99451.0;;;8.68;93.81
33913;BME280;20200;52.084;5.224;2022-11-23T06:40:10;99451.0;;;8.68;93.46
33913;BME280;20200;52.084;5.224;2022-11-23T06:43:23;99455.0;;;8.56;93.25
33913;BME280;20200;52.084;5.224;2022-11-23T06:44:59;99448.0;;;8.48;93.58
33913;BME280;20200;52.084;5.224;2022-11-23T06:46:35;99450.0;;;8.5;93.52
33913;BME280;20200;52.084;5.224;2022-11-23T06:49:49;99452.0;;;8.5;93.18
33913;BME280;20200;52.084;5.224;2022-11-23T06:51:25;99459.0;;;8.48;93.04
33913;BME280;20200;52.084;5.224;2022-11-23T06:53:01;99457.0;;;8.39;93.05
33913;BME280;20200;52.084;5.224;2022-11-23T06:54:38;99461.0;;;8.31;93.08
33913;BME280;20200;52.084;5.224;2022-11-23T06:57:51;99467.0;;;8.2;93.31
33913;BME280;20200;52.084;5.224;2022-11-23T06:59:28;99477.0;;;8.15;93.42
33913;BME280;20200;52.084;5.224;2022-11-23T07:01:06;99476.0;;;8.06;93.55
33913;BME280;20200;52.084;5.224;2022-11-23T07:04:26;99481.0;;;8.06;93.56
33913;BME280;20200;52.084;5.224;2022-11-23T07:06:04;99483.0;;;8.08;93.31
33913;BME280;20200;52.084;5.224;2022-11-23T07:07:40;99483.0;;;8.03;93.28
33913;BME280;20200;52.084;5.224;2022-11-23T07:09:17;99488.0;;;8.03;93.21
33913;BME280;20200;52.084;5.224;2022-11-23T07:12:35;99493.0;;;7.99;93.31
33913;BME280;20200;52.084;5.224;2022-11-23T07:14:11;99493.0;;;7.92;93.47
33913;BME280;20200;52.084;5.224;2022-11-23T07:15:47;99496.0;;;7.72;94.31
33913;BME280;20200;52.084;5.224;2022-11-23T07:19:00;99497.0;;;7.74;94.6
33913;BME280;20200;52.084;5.224;2022-11-23T07:20:36;99498.0;;;7.8;94.05
33913;BME280;20200;52.084;5.224;2022-11-23T07:22:12;99502.0;;;7.76;94.21
33913;BME280;20200;52.084;5.224;2022-11-23T07:23:49;99509.0;;;7.75;94.38
33913;BME280;20200;52.084;5.224;2022-11-23T07:27:01;99513.0;;;7.81;94.31
33913;BME280;20200;52.084;5.224;2022-11-23T07:28:37;99512.0;;;7.94;94.15
33913;BME280;20200;52.084;5.224;2022-11-23T07:30:14;99513.0;;;7.97;94.0
33913;BME280;20200;52.084;5.224;2022-11-23T07:33:26;99518.0;;;7.95;94.11
33913;BME280;20200;52.084;5.224;2022-11-23T07:35:03;99518.0;;;7.91;94.39
33913;BME280;20200;52.084;5.224;2022-11-23T07:36:40;99523.0;;;7.86;94.91
33913;BME280;20200;52.084;5.224;2022-11-23T07:39:53;99522.0;;;7.95;94.88
33913;BME280;20200;52.084;5.224;2022-11-23T07:41:28;99528.0;;;7.96;95.03
33913;BME280;20200;52.084;5.224;2022-11-23T07:43:06;99527.0;;;7.94;95.06
33913;BME280;20200;52.084;5.224;2022-11-23T07:44:42;99532.0;;;7.83;95.89
33913;BME280;20200;52.084;5.224;2022-11-23T07:47:57;99531.0;;;7.87;96.02
33913;BME280;20200;52.084;5.224;2022-11-23T07:49:34;99539.0;;;7.99;95.86
33913;BME280;20200;52.084;5.224;2022-11-23T07:51:10;99541.0;;;7.98;96.02
33913;BME280;20200;52.084;5.224;2022-11-23T07:54:22;99540.0;;;7.95;96.24
33913;BME280;20200;52.084;5.224;2022-11-23T07:55:58;99547.0;;;8.07;95.97
33913;BME280;20200;52.084;5.224;2022-11-23T07:57:35;99551.0;;;8.1;95.93
33913;BME280;20200;52.084;5.224;2022-11-23T08:00:47;99549.0;;;8.11;96.09
33913;BME280;20200;52.084;5.224;2022-11-23T08:02:23;99549.0;;;8.14;95.94
33913;BME280;20200;52.084;5.224;2022-11-23T08:03:59;99553.0;;;8.19;95.88
33913;BME280;20200;52.084;5.224;2022-11-23T08:07:12;99550.0;;;8.26;95.62
33913;BME280;20200;52.084;5.224;2022-11-23T08:08:48;99551.0;;;8.24;95.56
33913;BME280;20200;52.084;5.224;2022-11-23T08:10:26;99549.0;;;8.26;95.72
33913;BME280;20200;52.084;5.224;2022-11-23T08:12:03;99555.0;;;8.34;95.31
33913;BME280;20200;52.084;5.224;2022-11-23T08:15:16;99557.0;;;8.28;95.43
33913;BME280;20200;52.084;5.224;2022-11-23T08:16:52;99555.0;;;8.31;95.78
33913;BME280;20200;52.084;5.224;2022-11-23T08:18:28;99547.0;;;8.26;96.55
33913;BME280;20200;52.084;5.224;2022-11-23T08:21:42;99561.0;;;8.28;97.22
33913;BME280;20200;52.084;5.224;2022-11-23T08:23:19;99565.0;;;8.22;98.06
33913;BME280;20200;52.084;5.224;2022-11-23T08:24:56;99568.0;;;8.24;98.04
33913;BME280;20200;52.084;5.224;2022-11-23T08:28:09;99564.0;;;8.24;98.37
33913;BME280;20200;52.084;5.224;2022-11-23T08:29:45;99564.0;;;8.14;98.94
33913;BME280;20200;52.084;5.224;2022-11-23T08:31:22;99558.0;;;8.11;99.7
33913;BME280;20200;52.084;5.224;2022-11-23T08:32:58;99559.0;;;8.08;99.71
33913;BME280;20200;52.084;5.224;2022-11-23T08:45:56;99555.0;;;8.45;98.33
33913;BME280;20200;52.084;5.224;2022-11-23T08:49:09;99550.0;;;8.36;98.2
33913;BME280;20200;52.084;5.224;2022-11-23T08:50:45;99552.0;;;8.43;98.11
33913;BME280;20200;52.084;5.224;2022-11-23T08:52:21;99552.0;;;8.39;97.55
33913;BME280;20200;52.084;5.224;2022-11-23T08:53:57;99547.0;;;8.42;97.6
33913;BME280;20200;52.084;5.224;2022-11-23T08:57:10;99556.0;;;8.4;96.7
33913;BME280;20200;52.084;5.224;2022-11-23T08:58:47;99553.0;;;8.47;95.99
33913;BME280;20200;52.084;5.224;2022-11-23T09:00:24;99553.0;;;8.48;95.78
33913;BME280;20200;52.084;5.224;2022-11-23T09:03:38;99550.0;;;8.47;95.61
33913;BME280;20200;52.084;5.224;2022-11-23T09:05:15;99550.0;;;8.53;95.65
33913;BME280;20200;52.084;5.224;2022-11-23T09:06:53;99551.0;;;8.56;94.78
33913;BME280;20200;52.084;5.224;2022-11-23T09:08:29;99555.0;;;8.55;94.78
33913;BME280;20200;52.084;5.224;2022-11-23T09:11:43;99550.0;;;8.45;94.21
33913;BME280;20200;52.084;5.224;2022-11-23T09:13:20;99550.0;;;8.55;93.78
33913;BME280;20200;52.084;5.224;2022-11-23T09:14:56;99545.0;;;8.56;93.29
33913;BME280;20200;52.084;5.224;2022-11-23T09:18:09;99555.0;;;8.53;92.96
33913;BME280;20200;52.084;5.224;2022-11-23T09:19:45;99541.0;;;8.64;92.54
33913;BME280;20200;52.084;5.224;2022-11-23T09:21:21;99543.0;;;8.61;92.03
33913;BME280;20200;52.084;5.224;2022-11-23T09:24:33;99542.0;;;8.78;92.33
33913;BME280;20200;52.084;5.224;2022-11-23T09:26:09;99540.0;;;8.78;90.94
33913;BME280;20200;52.084;5.224;2022-11-23T09:27:46;99548.0;;;8.73;89.23
33913;BME280;20200;52.084;5.224;2022-11-23T09:29:24;99541.0;;;8.69;88.63
33913;BME280;20200;52.084;5.224;2022-11-23T09:32:39;99536.0;;;8.73;88.13
33913;BME280;20200;52.084;5.224;2022-11-23T09:34:16;99536.0;;;8.84;88.25
33913;BME280;20200;52.084;5.224;2022-11-23T09:35:57;99528.0;;;8.89;87.81
33913;BME280;20200;52.084;5.224;2022-11-23T09:39:11;99522.0;;;8.88;87.8
33913;BME280;20200;52.084;5.224;2022-11-23T09:40:52;99527.0;;;8.96;87.22
33913;BME280;20200;52.084;5.224;2022-11-23T09:42:44;99523.0;;;8.85;86.34
33913;BME280;20200;52.084;5.224;2022-11-23T09:44:38;99523.0;;;8.83;86.43
33913;BME280;20200;52.084;5.224;2022-11-23T09:46:23;99522.0;;;8.84;86.17
33913;BME280;20200;52.084;5.224;2022-11-23T10:19:20;99478.0;;;9.08;83.61
33913;BME280;20200;52.084;5.224;2022-11-23T10:21:05;99473.0;;;9.01;83.17
33913;BME280;20200;52.084;5.224;2022-11-23T10:22:56;99473.0;;;9.23;83.59
33913;BME280;20200;52.084;5.224;2022-11-23T10:24:37;99470.0;;;9.4;82.97
33913;BME280;20200;52.084;5.224;2022-11-23T10:26:16;99466.0;;;9.4;82.59
33913;BME280;20200;52.084;5.224;2022-11-23T10:29:36;99471.0;;;9.24;82.18
33913;BME280;20200;52.084;5.224;2022-11-23T10:31:15;99475.0;;;9.31;82.08
33913;BME280;20200;52.084;5.224;2022-11-23T10:32:58;99474.0;;;9.47;82.02
33913;BME280;20200;52.084;5.224;2022-11-23T10:34:45;99483.0;;;9.58;82.16
33913;BME280;20200;52.084;5.224;2022-11-23T10:36:24;99481.0;;;9.68;81.73
33913;BME280;20200;52.084;5.224;2022-11-23T10:39:45;99481.0;;;9.81;81.84
33913;BME280;20200;52.084;5.224;2022-11-23T10:41:21;99481.0;;;9.8;81.12
33913;BME280;20200;52.084;5.224;2022-11-23T10:43:00;99477.0;;;9.82;80.55
33913;BME280;20200;52.084;5.224;2022-11-23T10:44:38;99478.0;;;9.77;80.09
33913;BME280;20200;52.084;5.224;2022-11-23T10:48:32;99493.0;;;9.64;80.74
33913;BME280;20200;52.084;5.224;2022-11-23T10:50:23;99484.0;;;9.67;81.03
33913;BME280;20200;52.084;5.224;2022-11-23T10:52:04;99482.0;;;9.66;80.36
33913;BME280;20200;52.084;5.224;2022-11-23T10:53:41;99483.0;;;9.81;80.44
33913;BME280;20200;52.084;5.224;2022-11-23T10:55:23;99476.0;;;9.68;79.73
33913;BME280;20200;52.084;5.224;2022-11-23T10:58:56;99482.0;;;9.67;80.73
33913;BME280;20200;52.084;5.224;2022-11-23T11:00:33;99474.0;;;9.65;80.16
33913;BME280;20200;52.084;5.224;2022-11-23T11:02:14;99480.0;;;9.44;80.86
33913;BME280;20200;52.084;5.224;2022-11-23T11:03:53;99476.0;;;9.42;80.69
33913;BME280;20200;52.084;5.224;2022-11-23T11:07:18;99482.0;;;9.48;81.28
33913;BME280;20200;52.084;5.224;2022-11-23T11:09:04;99496.0;;;9.43;81.38
33913;BME280;20200;52.084;5.224;2022-11-23T11:10:57;99480.0;;;9.49;80.92
33913;BME280;20200;52.084;5.224;2022-11-23T11:12:34;99480.0;;;9.52;81.41
33913;BME280;20200;52.084;5.224;2022-11-23T11:14:14;99492.0;;;9.57;80.86
33913;BME280;20200;52.084;5.224;2022-11-23T11:17:32;99474.0;;;9.6;81.34
33913;BME280;20200;52.084;5.224;2022-11-23T11:19:21;99476.0;;;9.5;80.42
33913;BME280;20200;52.084;5.224;2022-11-23T11:21:03;99476.0;;;9.36;80.12
33913;BME280;20200;52.084;5.224;2022-11-23T11:22:42;99472.0;;;9.25;79.87
33913;BME280;20200;52.084;5.224;2022-11-23T11:26:10;99481.0;;;9.18;80.52
33913;BME280;20200;52.084;5.224;2022-11-23T11:27:55;99480.0;;;9.21;80.66
33913;BME280;20200;52.084;5.224;2022-11-23T11:29:36;99482.0;;;9.19;80.75
33913;BME280;20200;52.084;5.224;2022-11-23T11:31:32;99469.0;;;9.14;80.49
33913;BME280;20200;52.084;5.224;2022-11-23T11:33:17;99470.0;;;9.28;81.14
33913;BME280;20200;52.084;5.224;2022-11-23T11:35:00;99459.0;;;9.31;80.64
33913;BME280;20200;52.084;5.224;2022-11-23T11:38:32;99452.0;;;9.3;80.08
33913;BME280;20200;52.084;5.224;2022-11-23T11:40:16;99442.0;;;9.39;80.33
33913;BME280;20200;52.084;5.224;2022-11-23T11:42:00;99446.0;;;9.43;80.41
33913;BME280;20200;52.084;5.224;2022-11-23T11:43:41;99431.0;;;9.6;79.99
33913;BME280;20200;52.084;5.224;2022-11-23T11:45:23;99435.0;;;9.6;79.41
33913;BME280;20200;52.084;5.224;2022-11-23T11:48:48;99422.0;;;9.74;79.36
33913;BME280;20200;52.084;5.224;2022-11-23T11:50:30;99424.0;;;9.96;78.81
33913;BME280;20200;52.084;5.224;2022-11-23T11:52:12;99418.0;;;10.06;78.19
33913;BME280;20200;52.084;5.224;2022-11-23T11:53:56;99403.0;;;10.03;77.58
33913;BME280;20200;52.084;5.224;2022-11-23T11:57:30;99400.0;;;10.09;77.5
33913;BME280;20200;52.084;5.224;2022-11-23T11:59:13;99396.0;;;10.19;77.08
33913;BME280;20200;52.084;5.224;2022-11-23T12:00:57;99405.0;;;10.22;77.33
33913;BME280;20200;52.084;5.224;2022-11-23T12:02:56;99402.0;;;10.26;76.8
33913;BME280;20200;52.084;5.224;2022-11-23T12:04:40;99395.0;;;10.36;77.24
33913;BME280;20200;52.084;5.224;2022-11-23T12:06:22;99393.0;;;10.48;76.49